Time;durP1;ratioP1;P1;durP2;ratioP2;P2;SDS_P1;SDS_P2;PMS_P1;PMS_P2;Temp;Humidity;BMP_temperature;BMP_pressure;BME280_temperature;BME280_humidity;BME280_pressure;Samples;Min_cycle;Max_cycle;Signal;HPM_P1;HPM_P2
2022/03/29 00:02:18;;;;;;;30.00;14.53;;;;;;;;;;5011150;28;20779;-59
2022/03/29 00:04:45;;;;;;;26.33;14.73;;;;;;;;;;5011206;28;20318;-59
2022/03/29 00:07:11;;;;;;;27.53;14.27;;;;;;;;;;5011454;28;20537;-59
2022/03/29 00:09:38;;;;;;;28.93;14.80;;;;;;;;;;5011800;28;20431;-59
2022/03/29 00:12:22;;;;;;;30.03;13.73;;;;;;;;;;5011295;28;20928;-59
2022/03/29 00:14:49;;;;;;;24.93;13.57;;;;;;;;;;5011544;28;20450;-59
2022/03/29 00:17:15;;;;;;;25.00;13.90;;;;;;;;;;5010776;28;20966;-59
2022/03/29 00:19:42;;;;;;;28.67;13.90;;;;;;;;;;5011178;28;20188;-59
2022/03/29 00:22:10;;;;;;;24.60;14.50;;;;;;;;;;5011163;28;20200;-59
2022/03/29 00:24:37;;;;;;;23.67;14.27;;;;;;;;;;5010398;28;20794;-59
2022/03/29 00:27:05;;;;;;;27.93;13.77;;;;;;;;;;5010822;28;20439;-59
2022/03/29 00:29:33;;;;;;;32.03;15.77;;;;;;;;;;5009759;28;20196;-59
2022/03/29 00:32:00;;;;;;;28.57;12.53;;;;;;;;;;5010852;28;20196;-59
2022/03/29 00:34:26;;;;;;;27.23;14.30;;;;;;;;;;5010830;28;20546;-60
2022/03/29 00:36:53;;;;;;;30.23;15.20;;;;;;;;;;5010771;28;20497;-59
2022/03/29 00:39:37;;;;;;;26.00;13.60;;;;;;;;;;5015190;28;20429;-59
2022/03/29 00:42:04;;;;;;;30.30;15.00;;;;;;;;;;5010476;28;20423;-59
2022/03/29 00:44:31;;;;;;;27.87;13.30;;;;;;;;;;5010911;28;20497;-59
2022/03/29 00:46:58;;;;;;;28.60;14.97;;;;;;;;;;5010622;28;20430;-59
2022/03/29 00:49:25;;;;;;;28.10;13.63;;;;;;;;;;5010775;28;20458;-59
2022/03/29 00:52:09;;;;;;;28.80;14.87;;;;;;;;;;5010512;28;20539;-59
2022/03/29 00:54:38;;;;;;;25.30;14.07;;;;;;;;;;5011007;28;20196;-60
2022/03/29 00:57:05;;;;;;;32.83;14.63;;;;;;;;;;5014096;28;20212;-60
2022/03/29 00:59:32;;;;;;;27.53;14.63;;;;;;;;;;5014154;28;20938;-59
2022/03/29 01:01:59;;;;;;;26.63;13.10;;;;;;;;;;5012338;28;20534;-59
2022/03/29 01:41:03;;;;;;;26.73;12.57;;;;;;;;;;5027966;28;20753;-59
2022/03/29 01:43:29;;;;;;;29.43;13.70;;;;;;;;;;5022246;28;20550;-59
2022/03/29 01:45:56;;;;;;;27.23;12.57;;;;;;;;;;5009580;28;20526;-60
2022/03/29 01:48:24;;;;;;;27.87;12.77;;;;;;;;;;5008733;28;20518;-59
2022/03/29 01:50:51;;;;;;;23.40;11.73;;;;;;;;;;5009449;28;20193;-60
2022/03/29 01:53:24;;;;;;;29.00;13.30;;;;;;;;;;5009459;28;20435;-59
2022/03/29 01:55:58;;;;;;;29.80;12.60;;;;;;;;;;5009770;28;20439;-59
2022/03/29 01:58:24;;;;;;;24.40;11.40;;;;;;;;;;5009294;28;20986;-59
2022/03/29 02:00:51;;;;;;;20.43;12.17;;;;;;;;;;5009681;28;20431;-59
2022/03/29 02:03:18;;;;;;;27.97;13.07;;;;;;;;;;5009051;28;20228;-59
2022/03/29 02:05:45;;;;;;;26.53;12.47;;;;;;;;;;5009067;28;20470;-59
2022/03/29 02:08:11;;;;;;;29.70;12.80;;;;;;;;;;5009163;28;20989;-59
2022/03/29 02:10:38;;;;;;;28.93;13.07;;;;;;;;;;5009256;28;20431;-59
2022/03/29 02:13:09;;;;;;;28.97;13.20;;;;;;;;;;5009075;28;20783;-59
2022/03/29 02:15:36;;;;;;;27.27;12.90;;;;;;;;;;5009654;28;20446;-59
2022/03/29 02:18:03;;;;;;;25.87;12.63;;;;;;;;;;5011794;28;20435;-59
2022/03/29 02:20:47;;;;;;;27.50;12.50;;;;;;;;;;5009105;28;20184;-59
2022/03/29 02:23:15;;;;;;;31.47;13.10;;;;;;;;;;5008857;28;20435;-59
2022/03/29 02:25:59;;;;;;;28.13;12.73;;;;;;;;;;5008787;28;20226;-59
2022/03/29 02:28:26;;;;;;;25.37;12.33;;;;;;;;;;5008569;28;20439;-59
2022/03/29 02:30:53;;;;;;;27.03;13.00;;;;;;;;;;5009294;28;20753;-60
2022/03/29 02:33:19;;;;;;;31.05;14.18;;;;;;;;;;5008812;28;20545;-58
2022/03/29 02:35:46;;;;;;;26.23;13.90;;;;;;;;;;5008608;28;20192;-59
2022/03/29 02:38:13;;;;;;;22.50;12.63;;;;;;;;;;5008759;28;20784;-59
2022/03/29 02:40:40;;;;;;;29.20;13.30;;;;;;;;;;5021879;28;20438;-59
2022/03/29 02:43:07;;;;;;;27.80;13.53;;;;;;;;;;5008638;28;20430;-59
2022/03/29 02:45:33;;;;;;;30.67;12.97;;;;;;;;;;5016523;28;20537;-59
2022/03/29 02:48:00;;;;;;;28.60;12.20;;;;;;;;;;5012189;28;20428;-59
2022/03/29 02:50:27;;;;;;;36.23;14.53;;;;;;;;;;5012373;28;20454;-59
2022/03/29 02:52:55;;;;;;;27.17;13.50;;;;;;;;;;5007853;28;20427;-59
2022/03/29 02:55:22;;;;;;;25.27;12.93;;;;;;;;;;5007365;28;21025;-59
2022/03/29 02:57:49;;;;;;;27.87;13.93;;;;;;;;;;5008385;28;20451;-60
2022/03/29 03:00:16;;;;;;;29.40;14.20;;;;;;;;;;5008429;28;20526;-59
2022/03/29 03:02:46;;;;;;;24.33;13.33;;;;;;;;;;5007807;28;20849;-59
2022/03/29 03:05:13;;;;;;;29.90;13.90;;;;;;;;;;5008689;28;20266;-59
2022/03/29 03:07:40;;;;;;;26.80;13.67;;;;;;;;;;5008236;28;20431;-59
2022/03/29 03:10:07;;;;;;;32.33;13.00;;;;;;;;;;5008273;28;20525;-59
2022/03/29 03:12:35;;;;;;;29.03;13.50;;;;;;;;;;5007602;28;20427;-59
2022/03/29 03:15:20;;;;;;;28.30;12.40;;;;;;;;;;5008800;28;21232;-59
2022/03/29 03:17:46;;;;;;;27.47;12.67;;;;;;;;;;5007894;28;20411;-59
2022/03/29 03:20:14;;;;;;;28.87;12.13;;;;;;;;;;5008432;28;20461;-59
2022/03/29 03:22:40;;;;;;;28.63;12.63;;;;;;;;;;5006540;28;20200;-59
2022/03/29 03:25:08;;;;;;;24.93;12.73;;;;;;;;;;5008021;28;20254;-59
2022/03/29 03:27:52;;;;;;;24.13;11.33;;;;;;;;;;5008655;28;20433;-59
2022/03/29 03:30:18;;;;;;;25.30;11.57;;;;;;;;;;5008663;28;20430;-59
2022/03/29 03:32:46;;;;;;;20.83;11.67;;;;;;;;;;5007413;28;20431;-59
2022/03/29 03:35:17;;;;;;;18.43;11.43;;;;;;;;;;5008227;28;20489;-59
2022/03/29 03:37:43;;;;;;;22.77;11.67;;;;;;;;;;5008001;28;20439;-59
2022/03/29 03:40:10;;;;;;;25.30;11.17;;;;;;;;;;5019928;28;20782;-59
2022/03/29 03:42:37;;;;;;;21.63;11.23;;;;;;;;;;5009106;28;20446;-59
2022/03/29 03:45:05;;;;;;;19.73;9.87;;;;;;;;;;5007471;28;20435;-59
2022/03/29 03:47:32;;;;;;;23.93;10.57;;;;;;;;;;5007774;28;20521;-60
2022/03/29 03:49:59;;;;;;;23.87;9.47;;;;;;;;;;5008234;28;20442;-59
2022/03/29 03:52:25;;;;;;;21.13;9.43;;;;;;;;;;5011388;28;20557;-59
2022/03/29 03:54:54;;;;;;;21.43;9.67;;;;;;;;;;5024714;28;20441;-60
2022/03/29 03:57:21;;;;;;;18.43;9.33;;;;;;;;;;5019926;28;20528;-60
2022/03/29 03:59:49;;;;;;;22.07;9.43;;;;;;;;;;5021325;28;20430;-60
2022/03/29 04:02:37;;;;;;;17.63;9.17;;;;;;;;;;5021055;28;20442;-59
2022/03/29 04:05:08;;;;;;;19.70;9.47;;;;;;;;;;5021281;28;20446;-61
2022/03/29 04:07:35;;;;;;;21.30;9.57;;;;;;;;;;5019213;28;20487;-60
2022/03/29 04:10:01;;;;;;;22.70;9.60;;;;;;;;;;5020387;28;20204;-60
2022/03/29 04:12:28;;;;;;;22.03;9.80;;;;;;;;;;5023768;28;21176;-60
2022/03/29 04:14:55;;;;;;;21.40;9.80;;;;;;;;;;5024232;28;20433;-59
2022/03/29 04:17:21;;;;;;;21.50;9.87;;;;;;;;;;5023884;28;20434;-61
2022/03/29 04:19:48;;;;;;;21.20;10.03;;;;;;;;;;5021723;28;21071;-60
2022/03/29 04:22:18;;;;;;;18.03;9.30;;;;;;;;;;5024727;28;20449;-60
2022/03/29 04:24:45;;;;;;;20.37;9.20;;;;;;;;;;5024047;28;20441;-60
2022/03/29 04:27:12;;;;;;;20.53;9.93;;;;;;;;;;5024154;28;20571;-61
2022/03/29 04:29:38;;;;;;;30.43;9.43;;;;;;;;;;5023619;28;20441;-59
2022/03/29 04:32:09;;;;;;;25.73;9.67;;;;;;;;;;5024337;28;20448;-59
2022/03/29 04:34:36;;;;;;;24.93;9.23;;;;;;;;;;5024586;28;20805;-60
2022/03/29 04:37:03;;;;;;;20.57;9.43;;;;;;;;;;5023394;28;20537;-60
2022/03/29 04:39:31;;;;;;;20.43;9.53;;;;;;;;;;5024107;28;20450;-60
2022/03/29 04:41:58;;;;;;;23.07;9.27;;;;;;;;;;5022363;28;20538;-62
2022/03/29 04:44:36;;;;;;;22.93;9.73;;;;;;;;;;5023104;28;20449;-60
2022/03/29 04:47:04;;;;;;;19.27;9.10;;;;;;;;;;5022263;28;20501;-59
2022/03/29 04:49:32;;;;;;;23.20;9.10;;;;;;;;;;5023895;28;20878;-60
2022/03/29 04:51:59;;;;;;;21.23;9.70;;;;;;;;;;5022849;28;20442;-59
2022/03/29 04:54:27;;;;;;;24.63;10.77;;;;;;;;;;5025294;28;20464;-60
2022/03/29 04:56:54;;;;;;;20.57;9.40;;;;;;;;;;5029839;28;20435;-59
2022/03/29 04:59:21;;;;;;;24.63;10.63;;;;;;;;;;5027585;28;20561;-59
2022/03/29 05:01:47;;;;;;;19.53;9.43;;;;;;;;;;5012396;28;20442;-59
2022/03/29 05:04:32;;;;;;;21.67;9.03;;;;;;;;;;5027473;28;20502;-60
2022/03/29 05:06:58;;;;;;;20.37;9.50;;;;;;;;;;5022719;28;20488;-59
2022/03/29 05:09:25;;;;;;;22.17;9.07;;;;;;;;;;5013772;28;20442;-59
2022/03/29 05:11:52;;;;;;;16.13;8.27;;;;;;;;;;5016784;28;20427;-59
2022/03/29 05:14:19;;;;;;;19.57;8.57;;;;;;;;;;5033573;28;20549;-60
2022/03/29 05:16:47;;;;;;;22.03;9.20;;;;;;;;;;5035124;28;20940;-58
2022/03/29 05:19:14;;;;;;;17.93;8.03;;;;;;;;;;5039216;28;20440;-60
2022/03/29 05:21:41;;;;;;;26.67;8.97;;;;;;;;;;5044180;28;20430;-59
2022/03/29 05:24:08;;;;;;;26.50;9.07;;;;;;;;;;5042693;28;21302;-59
2022/03/29 05:26:34;;;;;;;21.03;9.47;;;;;;;;;;5009930;28;20471;-60
2022/03/29 05:29:02;;;;;;;20.07;9.13;;;;;;;;;;5009768;28;20443;-59
2022/03/29 05:31:32;;;;;;;23.13;9.50;;;;;;;;;;5010714;28;20533;-59
2022/03/29 05:33:58;;;;;;;24.43;9.90;;;;;;;;;;5027819;28;20521;-57
2022/03/29 05:36:25;;;;;;;20.93;10.27;;;;;;;;;;5029613;28;20478;-58
2022/03/29 05:38:52;;;;;;;29.77;10.73;;;;;;;;;;5028373;28;20440;-59
2022/03/29 05:41:20;;;;;;;19.63;9.67;;;;;;;;;;5010022;28;21165;-58
2022/03/29 05:43:48;;;;;;;22.57;9.83;;;;;;;;;;5009681;28;20427;-59
2022/03/29 05:49:00;;;;;;;23.40;10.10;;;;;;;;;;5009669;28;20518;-58
2022/03/29 05:51:45;;;;;;;18.00;8.20;;;;;;;;;;5009462;28;20407;-58
2022/03/29 05:54:12;;;;;;;27.43;8.67;;;;;;;;;;5009757;28;20795;-58
2022/03/29 05:56:38;;;;;;;17.70;7.73;;;;;;;;;;5009456;28;20430;-63
2022/03/29 05:59:07;;;;;;;21.40;8.10;;;;;;;;;;5015524;28;20545;-60
2022/03/29 06:01:34;;;;;;;14.07;7.20;;;;;;;;;;5039888;28;20457;-59
2022/03/29 06:04:06;;;;;;;16.17;8.03;;;;;;;;;;5041879;28;20496;-59
2022/03/29 06:06:36;;;;;;;16.30;6.60;;;;;;;;;;5029075;28;20465;-54
2022/03/29 06:09:03;;;;;;;16.70;8.37;;;;;;;;;;5028608;28;20179;-59
2022/03/29 06:11:30;;;;;;;17.20;9.03;;;;;;;;;;5030380;28;20993;-60
2022/03/29 06:13:56;;;;;;;18.23;8.13;;;;;;;;;;5042469;28;20190;-59
2022/03/29 06:16:23;;;;;;;18.07;7.67;;;;;;;;;;5041365;28;20530;-59
2022/03/29 06:18:50;;;;;;;18.03;7.50;;;;;;;;;;5042605;28;20213;-59
2022/03/29 06:21:18;;;;;;;19.53;7.50;;;;;;;;;;5042427;28;20197;-62
2022/03/29 06:23:45;;;;;;;16.33;6.70;;;;;;;;;;5040272;28;20182;-59
2022/03/29 06:26:15;;;;;;;13.37;6.33;;;;;;;;;;5041001;28;20230;-59
2022/03/29 06:28:42;;;;;;;17.93;6.17;;;;;;;;;;5040896;28;20297;-60
2022/03/29 06:31:28;;;;;;;13.23;6.43;;;;;;;;;;5040258;28;20186;-60
2022/03/29 06:33:55;;;;;;;15.77;6.60;;;;;;;;;;5040216;28;20183;-59
2022/03/29 06:36:41;;;;;;;10.60;6.03;;;;;;;;;;5039921;28;21028;-59
2022/03/29 06:39:10;;;;;;;9.73;4.50;;;;;;;;;;5039078;28;20210;-59
2022/03/29 06:41:38;;;;;;;13.47;4.27;;;;;;;;;;5041360;28;20238;-59
2022/03/29 06:44:08;;;;;;;12.80;4.80;;;;;;;;;;5039574;28;20232;-60
2022/03/29 06:46:35;;;;;;;9.17;4.23;;;;;;;;;;5041569;28;20226;-60
2022/03/29 06:49:06;;;;;;;16.00;4.50;;;;;;;;;;5040118;28;20190;-63
2022/03/29 06:51:33;;;;;;;7.23;2.60;;;;;;;;;;5041898;28;20199;-60
2022/03/29 06:54:00;;;;;;;9.73;3.43;;;;;;;;;;5040379;28;20194;-60
2022/03/29 06:56:28;;;;;;;9.00;4.00;;;;;;;;;;5041230;28;20218;-62
2022/03/29 06:58:54;;;;;;;9.10;3.87;;;;;;;;;;5039261;28;20195;-61
2022/03/29 07:01:24;;;;;;;34.40;5.47;;;;;;;;;;5040757;28;20191;-61
2022/03/29 07:03:51;;;;;;;20.33;4.50;;;;;;;;;;5044070;28;20219;-59
2022/03/29 07:06:18;;;;;;;7.90;3.73;;;;;;;;;;5041258;28;20211;-60
2022/03/29 07:11:50;;;;;;;8.47;3.43;;;;;;;;;;5040678;28;20277;-59
2022/03/29 07:14:17;;;;;;;9.13;4.40;;;;;;;;;;5040690;28;20198;-59
2022/03/29 07:17:05;;;;;;;8.23;3.30;;;;;;;;;;5040525;28;20178;-60
2022/03/29 07:19:32;;;;;;;7.13;3.60;;;;;;;;;;5038138;28;20191;-59
2022/03/29 07:22:00;;;;;;;11.20;2.90;;;;;;;;;;5040441;28;20194;-59
2022/03/29 07:24:27;;;;;;;19.50;4.13;;;;;;;;;;5039636;28;20210;-60
2022/03/29 07:26:54;;;;;;;15.77;3.40;;;;;;;;;;5038780;28;20219;-60
2022/03/29 07:29:39;;;;;;;5.27;2.60;;;;;;;;;;5040167;28;20202;-60
2022/03/29 07:32:06;;;;;;;8.27;2.60;;;;;;;;;;5039547;28;20189;-61
2022/03/29 07:34:35;;;;;;;9.73;3.07;;;;;;;;;;5040671;28;20190;-61
2022/03/29 07:37:03;;;;;;;21.50;3.50;;;;;;;;;;5040829;28;20202;-60
2022/03/29 07:39:29;;;;;;;6.50;3.33;;;;;;;;;;5041265;28;20244;-64
2022/03/29 07:41:56;;;;;;;9.37;2.67;;;;;;;;;;5038697;28;20285;-63
2022/03/29 07:44:23;;;;;;;7.33;2.97;;;;;;;;;;5039501;28;20183;-67
2022/03/29 07:46:50;;;;;;;6.97;2.60;;;;;;;;;;5043161;28;20209;-66
2022/03/29 07:49:17;;;;;;;8.20;2.77;;;;;;;;;;5043923;28;20197;-63
2022/03/29 07:52:04;;;;;;;63.83;7.00;;;;;;;;;;5042988;28;20634;-62
2022/03/29 07:54:49;;;;;;;11.17;2.67;;;;;;;;;;5052559;28;20178;-66
2022/03/29 07:57:15;;;;;;;10.77;2.97;;;;;;;;;;5050926;28;20721;-66
2022/03/29 08:00:31;;;;;;;7.00;2.60;;;;;;;;;;5048260;28;20194;-62
2022/03/29 08:02:50;;;;;;;6.73;2.57;;;;;;;;;;5048880;28;20223;-62
2022/03/29 08:05:17;;;;;;;6.17;2.70;;;;;;;;;;5037530;28;20234;-63
2022/03/29 08:07:44;;;;;;;7.90;3.30;;;;;;;;;;5047828;28;20227;-62
2022/03/29 08:10:11;;;;;;;8.33;3.00;;;;;;;;;;5048481;28;20210;-63
2022/03/29 08:12:38;;;;;;;6.57;2.47;;;;;;;;;;5048743;28;20198;-60
2022/03/29 08:15:06;;;;;;;7.40;2.37;;;;;;;;;;5048012;28;20194;-65
2022/03/29 08:17:33;;;;;;;6.97;2.47;;;;;;;;;;5048362;28;20199;-66
2022/03/29 08:20:00;;;;;;;5.77;1.93;;;;;;;;;;5047508;28;20313;-61
2022/03/29 08:22:27;;;;;;;7.47;2.43;;;;;;;;;;5033042;28;20186;-66
2022/03/29 08:24:54;;;;;;;11.53;2.50;;;;;;;;;;5045658;28;20217;-61
2022/03/29 08:27:21;;;;;;;8.53;2.40;;;;;;;;;;5046686;28;20222;-61
2022/03/29 08:29:47;;;;;;;9.47;2.60;;;;;;;;;;5048014;28;20191;-62
2022/03/29 08:32:14;;;;;;;6.83;3.10;;;;;;;;;;5048409;28;20194;-63
2022/03/29 08:34:41;;;;;;;7.90;2.90;;;;;;;;;;5047996;28;20313;-63
2022/03/29 08:37:08;;;;;;;12.13;2.70;;;;;;;;;;5040956;28;20959;-60
2022/03/29 08:39:35;;;;;;;7.33;2.73;;;;;;;;;;5048116;28;20253;-60
2022/03/29 08:42:02;;;;;;;7.53;2.53;;;;;;;;;;5047429;28;20964;-59
2022/03/29 08:44:29;;;;;;;27.73;4.50;;;;;;;;;;5046761;28;20569;-61
2022/03/29 08:46:56;;;;;;;10.83;2.93;;;;;;;;;;5048094;28;20760;-61
2022/03/29 08:49:23;;;;;;;10.30;3.07;;;;;;;;;;5045399;28;20321;-61
2022/03/29 08:51:50;;;;;;;7.10;2.57;;;;;;;;;;5041310;28;20245;-61
2022/03/29 08:54:19;;;;;;;6.37;2.57;;;;;;;;;;5034248;28;20334;-62
2022/03/29 08:56:46;;;;;;;7.50;2.83;;;;;;;;;;5028391;28;20187;-68
2022/03/29 08:59:13;;;;;;;9.87;2.63;;;;;;;;;;5044819;28;20199;-61
2022/03/29 09:01:40;;;;;;;11.97;2.67;;;;;;;;;;5048162;28;20194;-61
2022/03/29 09:04:11;;;;;;;3.93;1.50;;;;;;;;;;5046923;28;20233;-62
2022/03/29 09:06:49;;;;;;;6.13;2.27;;;;;;;;;;5047739;28;20284;-67
2022/03/29 09:09:33;;;;;;;6.63;2.30;;;;;;;;;;5046600;28;20223;-64
2022/03/29 09:12:10;;;;;;;6.57;2.63;;;;;;;;;;5047743;28;20198;-62
2022/03/29 09:15:09;;;;;;;6.37;2.10;;;;;;;;;;5047059;28;20194;-63
2022/03/29 09:17:38;;;;;;;7.47;2.70;;;;;;;;;;5035425;28;20213;-60
2022/03/29 09:20:06;;;;;;;7.17;2.70;;;;;;;;;;5038752;28;20963;-61
2022/03/29 09:22:47;;;;;;;5.50;2.33;;;;;;;;;;5026827;28;20523;-60
2022/03/29 09:25:18;;;;;;;4.80;2.13;;;;;;;;;;5044556;28;20244;-61
2022/03/29 09:27:52;;;;;;;5.53;2.00;;;;;;;;;;5044611;28;20210;-60
2022/03/29 09:30:20;;;;;;;6.13;2.10;;;;;;;;;;5044995;28;21063;-60
2022/03/29 09:32:51;;;;;;;4.17;2.00;;;;;;;;;;5040987;28;20198;-61
2022/03/29 09:35:18;;;;;;;4.47;2.27;;;;;;;;;;5042414;28;20660;-60
2022/03/29 09:37:45;;;;;;;4.43;2.43;;;;;;;;;;5043294;28;20278;-61
2022/03/29 09:40:12;;;;;;;5.43;2.00;;;;;;;;;;5043377;28;20676;-61
2022/03/29 09:42:59;;;;;;;6.50;1.70;;;;;;;;;;5042254;28;20718;-61
2022/03/29 09:45:43;;;;;;;5.40;2.10;;;;;;;;;;5042370;28;20187;-61
2022/03/29 09:48:26;;;;;;;4.37;2.10;;;;;;;;;;5041822;28;20236;-60
2022/03/29 09:51:08;;;;;;;4.27;1.93;;;;;;;;;;5042758;28;20226;-61
2022/03/29 09:53:34;;;;;;;6.60;1.63;;;;;;;;;;5042187;28;20226;-61
2022/03/29 09:56:01;;;;;;;6.50;1.70;;;;;;;;;;5040253;28;20200;-60
2022/03/29 09:58:28;;;;;;;4.23;1.90;;;;;;;;;;5039128;28;20297;-61
2022/03/29 10:00:55;;;;;;;6.63;1.70;;;;;;;;;;5042349;28;20209;-60
2022/03/29 10:03:26;;;;;;;32.00;4.03;;;;;;;;;;5038796;28;20234;-59
2022/03/29 10:06:01;;;;;;;24.00;3.87;;;;;;;;;;5039437;28;20281;-59
2022/03/29 10:11:17;;;;;;;9.33;2.00;;;;;;;;;;5037535;28;20227;-60
2022/03/29 10:13:46;;;;;;;8.40;2.27;;;;;;;;;;5041492;28;20195;-61
2022/03/29 10:16:14;;;;;;;6.23;2.43;;;;;;;;;;5041191;28;20217;-62
2022/03/29 10:18:43;;;;;;;5.33;2.17;;;;;;;;;;5041159;28;21002;-61
2022/03/29 10:21:11;;;;;;;6.10;2.00;;;;;;;;;;5041639;28;20199;-60
2022/03/29 10:23:37;;;;;;;5.10;1.90;;;;;;;;;;5041439;28;20414;-61
2022/03/29 10:26:05;;;;;;;9.63;3.07;;;;;;;;;;5039950;28;20179;-60
2022/03/29 10:28:33;;;;;;;5.93;2.10;;;;;;;;;;5040973;28;20313;-60
2022/03/29 10:31:01;;;;;;;5.33;2.07;;;;;;;;;;5042063;28;20198;-59
2022/03/29 10:33:30;;;;;;;3.90;1.83;;;;;;;;;;5040312;28;20367;-60
2022/03/29 10:36:00;;;;;;;5.63;1.80;;;;;;;;;;5041960;28;20725;-60
2022/03/29 10:38:45;;;;;;;4.80;2.20;;;;;;;;;;5040610;28;20223;-59
2022/03/29 10:41:28;;;;;;;6.97;2.60;;;;;;;;;;5040905;28;20765;-60
2022/03/29 10:43:56;;;;;;;8.93;3.30;;;;;;;;;;5039104;28;20194;-61
2022/03/29 10:46:24;;;;;;;11.57;3.57;;;;;;;;;;5039998;28;20194;-61
2022/03/29 10:49:14;;;;;;;4.30;2.23;;;;;;;;;;5041016;28;20737;-61
2022/03/29 10:51:41;;;;;;;10.07;2.60;;;;;;;;;;5038979;28;20225;-60
2022/03/29 10:54:28;;;;;;;5.60;2.43;;;;;;;;;;5040323;28;20209;-60
2022/03/29 10:56:59;;;;;;;5.50;2.47;;;;;;;;;;5040022;28;20685;-60
2022/03/29 10:59:26;;;;;;;7.60;2.87;;;;;;;;;;5039995;28;20201;-60
2022/03/29 11:02:06;;;;;;;7.43;2.70;;;;;;;;;;5040565;28;20264;-60
2022/03/29 11:04:34;;;;;;;9.60;3.03;;;;;;;;;;5040594;28;20230;-60
2022/03/29 11:07:06;;;;;;;4.13;1.70;;;;;;;;;;5039721;28;20198;-60
2022/03/29 11:09:34;;;;;;;24.57;3.87;;;;;;;;;;5041301;28;20896;-58
2022/03/29 11:12:01;;;;;;;4.20;2.20;;;;;;;;;;5039774;28;20236;-59
2022/03/29 11:14:30;;;;;;;5.87;2.20;;;;;;;;;;5038744;28;20665;-59
2022/03/29 11:17:06;;;;;;;5.37;1.00;;;;;;;;;;5039784;28;20186;-59
2022/03/29 11:19:49;;;;;;;9.70;1.63;;;;;;;;;;5037895;28;20209;-58
2022/03/29 11:22:25;;;;;;;5.13;1.70;;;;;;;;;;5043591;28;20242;-61
2022/03/29 11:24:53;;;;;;;5.13;1.50;;;;;;;;;;5045120;28;20197;-60
2022/03/29 11:27:22;;;;;;;4.40;1.80;;;;;;;;;;5044805;28;20190;-60
2022/03/29 11:29:49;;;;;;;4.27;1.47;;;;;;;;;;5044840;28;20205;-59
2022/03/29 11:32:17;;;;;;;5.47;1.70;;;;;;;;;;5042309;28;20203;-60
2022/03/29 11:34:44;;;;;;;5.00;1.30;;;;;;;;;;5045107;28;20210;-59
2022/03/29 11:37:29;;;;;;;6.00;1.20;;;;;;;;;;5045252;28;20187;-60
2022/03/29 11:39:56;;;;;;;22.43;2.70;;;;;;;;;;5044603;28;20360;-60
2022/03/29 11:42:23;;;;;;;6.87;1.80;;;;;;;;;;5044377;28;21025;-60
2022/03/29 11:44:51;;;;;;;4.80;1.00;;;;;;;;;;5042471;28;20193;-60
2022/03/29 11:47:18;;;;;;;5.73;1.40;;;;;;;;;;5043081;28;20221;-60
2022/03/29 11:49:51;;;;;;;4.50;1.13;;;;;;;;;;5042293;28;20285;-59
2022/03/29 11:52:18;;;;;;;2.63;1.07;;;;;;;;;;5044188;28;20661;-61
2022/03/29 11:54:46;;;;;;;6.40;1.30;;;;;;;;;;5043527;28;20191;-60
2022/03/29 11:57:14;;;;;;;4.53;1.17;;;;;;;;;;5043718;28;20190;-60
2022/03/29 11:59:42;;;;;;;6.57;1.70;;;;;;;;;;5042841;28;20527;-60
2022/03/29 12:02:09;;;;;;;3.97;1.00;;;;;;;;;;5041613;28;20519;-60
2022/03/29 12:04:36;;;;;;;2.77;0.87;;;;;;;;;;5042994;28;20231;-60
2022/03/29 12:07:03;;;;;;;6.63;1.20;;;;;;;;;;5043579;28;20197;-60
2022/03/29 12:09:31;;;;;;;5.17;1.00;;;;;;;;;;5044533;28;20272;-60
2022/03/29 12:12:00;;;;;;;4.97;1.10;;;;;;;;;;5043724;28;20187;-60
2022/03/29 12:14:27;;;;;;;3.07;1.00;;;;;;;;;;5043083;28;20235;-60
2022/03/29 12:16:58;;;;;;;3.87;1.07;;;;;;;;;;5043013;28;20198;-59
2022/03/29 12:19:25;;;;;;;4.17;1.40;;;;;;;;;;5042550;28;20215;-59
2022/03/29 12:21:53;;;;;;;3.20;1.17;;;;;;;;;;5043792;28;20262;-60
2022/03/29 12:24:25;;;;;;;3.90;0.90;;;;;;;;;;5042043;28;20249;-60
2022/03/29 12:26:56;;;;;;;2.50;0.80;;;;;;;;;;5043330;28;20204;-60
2022/03/29 12:29:25;;;;;;;4.70;1.20;;;;;;;;;;5042069;28;21102;-59
2022/03/29 12:31:52;;;;;;;3.20;0.90;;;;;;;;;;5042246;28;20201;-59
2022/03/29 12:34:19;;;;;;;14.27;3.33;;;;;;;;;;5041917;28;20203;-59
2022/03/29 12:37:04;;;;;;;4.23;1.40;;;;;;;;;;5040165;28;20888;-61
2022/03/29 12:39:32;;;;;;;2.23;0.83;;;;;;;;;;5042158;28;20198;-61
2022/03/29 12:42:19;;;;;;;2.93;0.87;;;;;;;;;;5041949;28;20259;-61
2022/03/29 12:44:52;;;;;;;3.97;1.10;;;;;;;;;;5043112;28;20557;-61
2022/03/29 12:47:19;;;;;;;3.37;0.80;;;;;;;;;;5041915;28;20277;-62
2022/03/29 12:49:49;;;;;;;8.10;1.50;;;;;;;;;;5043347;28;20284;-61
2022/03/29 12:52:16;;;;;;;6.83;1.70;;;;;;;;;;5042262;28;20203;-61
2022/03/29 12:54:45;;;;;;;4.27;1.20;;;;;;;;;;5042374;28;20228;-64
2022/03/29 12:57:14;;;;;;;4.57;1.30;;;;;;;;;;5042997;28;20185;-61
2022/03/29 12:59:42;;;;;;;3.23;1.60;;;;;;;;;;5041483;28;20205;-61
2022/03/29 13:02:12;;;;;;;8.43;1.97;;;;;;;;;;5044221;28;20896;-60
2022/03/29 13:04:40;;;;;;;31.03;10.47;;;;;;;;;;5043712;28;20263;-60
2022/03/29 13:07:08;;;;;;;4.07;1.20;;;;;;;;;;5042516;28;20195;-60
2022/03/29 13:09:38;;;;;;;16.50;3.70;;;;;;;;;;5044375;28;20254;-60
2022/03/29 13:12:24;;;;;;;28.77;9.03;;;;;;;;;;5042893;28;20248;-61
2022/03/29 13:14:51;;;;;;;9.93;3.40;;;;;;;;;;5041070;28;21055;-62
2022/03/29 13:17:18;;;;;;;4.80;1.23;;;;;;;;;;5040027;28;20448;-60
2022/03/29 13:19:55;;;;;;;7.73;1.23;;;;;;;;;;5042822;28;20282;-60
2022/03/29 13:22:45;;;;;;;6.97;1.53;;;;;;;;;;5042844;28;20194;-62
2022/03/29 13:25:13;;;;;;;17.77;3.07;;;;;;;;;;5042620;28;21448;-60
2022/03/29 13:27:57;;;;;;;3.07;1.00;;;;;;;;;;5039864;28;20269;-61
2022/03/29 13:30:25;;;;;;;5.70;1.13;;;;;;;;;;5041570;28;20207;-61
2022/03/29 13:32:52;;;;;;;5.93;1.70;;;;;;;;;;5045679;28;20249;-59
2022/03/29 13:35:19;;;;;;;5.03;1.27;;;;;;;;;;5049365;28;20933;-60
2022/03/29 13:37:46;;;;;;;5.00;1.17;;;;;;;;;;5049429;28;20203;-60
2022/03/29 13:40:12;;;;;;;8.20;1.80;;;;;;;;;;5037159;28;20422;-59
2022/03/29 13:42:39;;;;;;;7.93;1.13;;;;;;;;;;5029471;28;20434;-60
2022/03/29 13:45:06;;;;;;;3.87;0.90;;;;;;;;;;5028768;28;20559;-60
2022/03/29 13:47:36;;;;;;;4.50;0.97;;;;;;;;;;5029391;28;20196;-59
2022/03/29 13:50:03;;;;;;;4.73;1.13;;;;;;;;;;5032974;28;20335;-60
2022/03/29 13:52:30;;;;;;;12.53;3.43;;;;;;;;;;5042036;28;20195;-61
2022/03/29 13:55:15;;;;;;;6.90;1.47;;;;;;;;;;5042255;28;20186;-60
2022/03/29 13:57:42;;;;;;;3.67;1.30;;;;;;;;;;5042481;28;20543;-60
2022/03/29 14:00:12;;;;;;;3.87;1.27;;;;;;;;;;5041706;28;20463;-61
2022/03/29 14:02:39;;;;;;;4.40;1.00;;;;;;;;;;5040166;28;20433;-62
2022/03/29 14:05:06;;;;;;;5.20;1.80;;;;;;;;;;5039760;28;20849;-61
2022/03/29 14:07:34;;;;;;;7.60;1.57;;;;;;;;;;5041936;28;21035;-61
2022/03/29 14:10:00;;;;;;;5.07;1.10;;;;;;;;;;5038573;28;20558;-59
2022/03/29 14:12:27;;;;;;;5.40;2.27;;;;;;;;;;5041996;28;20433;-59
2022/03/29 14:15:12;;;;;;;3.70;1.30;;;;;;;;;;5041472;28;20209;-58
2022/03/29 14:17:39;;;;;;;7.17;1.83;;;;;;;;;;5040481;28;20464;-59
2022/03/29 14:20:06;;;;;;;8.53;1.70;;;;;;;;;;5041038;28;20438;-59
2022/03/29 14:22:34;;;;;;;29.87;13.00;;;;;;;;;;5042633;28;21718;-59
2022/03/29 14:25:02;;;;;;;12.53;5.37;;;;;;;;;;5041978;28;20469;-59
2022/03/29 14:27:29;;;;;;;5.10;2.10;;;;;;;;;;5040543;28;20983;-59
2022/03/29 14:29:55;;;;;;;13.27;4.40;;;;;;;;;;5041797;28;20508;-61
2022/03/29 14:32:22;;;;;;;15.63;6.33;;;;;;;;;;5040858;28;21209;-59
2022/03/29 14:34:50;;;;;;;47.23;15.87;;;;;;;;;;5040531;28;20451;-58
2022/03/29 14:37:18;;;;;;;8.83;3.23;;;;;;;;;;5041884;28;20437;-60
2022/03/29 14:39:45;;;;;;;6.33;1.30;;;;;;;;;;5037722;28;20433;-59
2022/03/29 14:42:12;;;;;;;5.33;0.90;;;;;;;;;;5041307;28;20449;-58
2022/03/29 14:44:39;;;;;;;7.20;1.20;;;;;;;;;;5041606;28;20449;-58
2022/03/29 14:47:08;;;;;;;3.53;1.10;;;;;;;;;;5040983;28;20536;-59
2022/03/29 14:49:36;;;;;;;9.20;1.17;;;;;;;;;;5036223;28;20512;-59
2022/03/29 14:52:03;;;;;;;21.10;2.00;;;;;;;;;;5039776;28;20433;-58
2022/03/29 14:54:31;;;;;;;4.63;1.57;;;;;;;;;;5038850;28;20483;-60
2022/03/29 14:56:59;;;;;;;7.27;1.90;;;;;;;;;;5038764;28;20437;-61
2022/03/29 14:59:26;;;;;;;2.40;0.80;;;;;;;;;;5037964;28;20441;-61
2022/03/29 15:01:53;;;;;;;3.80;0.87;;;;;;;;;;5039332;28;20441;-60
2022/03/29 15:04:20;;;;;;;5.53;1.17;;;;;;;;;;5039906;28;20973;-59
2022/03/29 15:06:49;;;;;;;5.13;1.40;;;;;;;;;;5041442;28;20998;-59
2022/03/29 15:09:16;;;;;;;6.70;2.17;;;;;;;;;;5041067;28;20492;-59
2022/03/29 15:11:44;;;;;;;4.20;1.20;;;;;;;;;;5039937;28;20453;-59
2022/03/29 15:14:14;;;;;;;3.37;1.03;;;;;;;;;;5040314;28;20789;-59
2022/03/29 15:16:41;;;;;;;5.70;2.33;;;;;;;;;;5041028;28;20452;-61
2022/03/29 15:19:10;;;;;;;5.33;1.77;;;;;;;;;;5038889;28;20515;-60
2022/03/29 15:21:37;;;;;;;6.20;1.77;;;;;;;;;;5039865;28;20457;-59
2022/03/29 15:24:04;;;;;;;4.83;1.47;;;;;;;;;;5038045;28;20429;-60
2022/03/29 15:26:31;;;;;;;5.83;1.80;;;;;;;;;;5040898;28;20854;-59
2022/03/29 15:29:00;;;;;;;7.30;1.60;;;;;;;;;;5040571;28;20461;-59
2022/03/29 15:31:26;;;;;;;6.70;2.33;;;;;;;;;;5040565;28;20441;-61
2022/03/29 15:34:30;;;;;;;6.53;2.23;;;;;;;;;;5040424;28;20773;-60